Flight Track Log - Related Links

Times and Time Zones

All times are in EDT time to prevent confusion due to time zone crossing. See the G52652 flight status page for this flight to view local times or setup timezone preferences in your user account.

Time Position Orientation Groundspeed Altitude Reporting Facility
EDT Latitude Longitude Course Direction KTS MPH feet Rate Location/Type
Wed 03:29:00 AM 23.4844 107.9935 349° North  Level Estimated
Wed 03:30:00 AM 23.5939 107.9710 349° North  Level Estimated
Wed 03:31:00 AM 23.7034 107.9484 349° North  Level Estimated
Wed 03:32:00 AM 23.8129 107.9258 349° North  Level Estimated
Wed 03:33:00 AM 23.9224 107.9031 349° North  Level Estimated
Wed 03:34:00 AM 24.0319 107.8804 349° North  Level Estimated
Wed 03:35:00 AM 24.1414 107.8577 349° North  Level Estimated
Wed 03:36:00 AM 24.2509 107.8350 349° North  Level Estimated
Wed 03:37:00 AM 24.3603 107.8122 349° North  Level Estimated
Wed 03:38:00 AM 24.4698 107.7893 349° North  Level Estimated
Wed 03:39:00 AM 24.5793 107.7664 349° North  Level Estimated
Wed 03:40:00 AM 24.6888 107.7435 349° North  Level Estimated
Wed 03:41:00 AM 24.7982 107.7206 349° North  Level Estimated
Wed 03:42:00 AM 24.9077 107.6975 349° North  Level Estimated
Wed 03:43:00 AM 25.0172 107.6745 349° North  Level Estimated
Wed 03:44:00 AM 25.1266 107.6514 349° North  Level Estimated
Wed 03:45:00 AM 25.2361 107.6283 349° North  Level Estimated
Wed 03:46:00 AM 25.3455 107.6051 349° North  Level Estimated
Wed 03:47:00 AM 25.4550 107.5819 349° North  Level Estimated
Wed 03:48:00 AM 25.5644 107.5587 349° North  Level Estimated
Wed 03:49:00 AM 25.6738 107.5354 349° North  Level Estimated
Wed 03:50:00 AM 25.7833 107.5120 349° North  Level Estimated
Wed 03:51:00 AM 25.8927 107.4886 349° North  Level Estimated
Wed 03:52:00 AM 26.0021 107.4652 349° North  Level Estimated
Wed 03:53:00 AM 26.1115 107.4418 349° North  Level Estimated
Wed 03:54:00 AM 26.2210 107.4183 349° North  Level Estimated
Wed 03:55:00 AM 26.3304 107.3947 349° North  Level Estimated
Wed 03:56:00 AM 26.4398 107.3711 349° North  Level Estimated
Wed 03:57:00 AM 26.5492 107.3475 349° North  Level Estimated
Wed 03:58:00 AM 26.6586 107.3238 349° North  Level Estimated
Wed 03:59:00 AM 26.7680 107.3000 349° North  Level Estimated
Wed 04:00:00 AM 26.8774 107.2762 349° North  Level Estimated
Wed 04:01:00 AM 26.9868 107.2524 349° North  Level Estimated
Wed 04:02:00 AM 27.0962 107.2285 349° North  Level Estimated
Wed 04:03:00 AM 27.2056 107.2046 349° North  Level Estimated
Wed 04:04:00 AM 27.3150 107.1806 349° North  Level Estimated
Wed 04:05:00 AM 27.4243 107.1566 349° North  Level Estimated
Wed 04:06:00 AM 27.5337 107.1326 349° North  Level Estimated
Wed 04:07:00 AM 27.6431 107.1085 349° North  Level Estimated
Wed 04:08:00 AM 27.7524 107.0843 349° North  Level Estimated
Wed 04:09:00 AM 27.8618 107.0601 349° North  Level Estimated
Wed 04:10:00 AM 27.9711 107.0358 349° North  Level Estimated
Wed 04:11:00 AM 28.0805 107.0115 349° North  Level Estimated
Wed 04:12:00 AM 28.1898 106.9872 349° North  Level Estimated
Wed 04:13:00 AM 28.2992 106.9628 349° North  Level Estimated
Wed 04:14:00 AM 28.4085 106.9383 349° North  Level Estimated
Wed 04:15:00 AM 28.5179 106.9138 349° North  Level Estimated
Wed 04:16:00 AM 28.6272 106.8893 349° North  Level Estimated
Wed 04:17:00 AM 28.7365 106.8646 349° North  Level Estimated
Wed 04:18:00 AM 28.8458 106.8400 349° North  Level Estimated
Wed 04:19:00 AM 28.9551 106.8153 349° North  Level Estimated
Wed 04:20:00 AM 29.0644 106.7905 349° North  Level Estimated
Wed 04:21:00 AM 29.1737 106.7657 349° North  Level Estimated
Wed 04:22:00 AM 29.2831 106.7408 349° North  Level Estimated
Wed 04:23:00 AM 29.3923 106.7159 349° North  Level Estimated
Wed 04:24:00 AM 29.5016 106.6909 349° North  Level Estimated
Wed 04:25:00 AM 29.6109 106.6659 349° North  Level Estimated
Wed 04:26:00 AM 29.7194 106.6410 349° North  Level Estimated
Wed 04:27:00 AM 29.7194 106.6410 North  Level Estimated
Wed 04:28:00 AM 29.7194 106.6410 North  Level Estimated
Wed 04:29:00 AM 29.7194 106.6410 North  Level Estimated
Wed 04:30:00 AM 29.7194 106.6410 North  Level Estimated
Wed 04:31:00 AM 29.7194 106.6410 North  Level Estimated
Wed 04:32:00 AM 29.7194 106.6410 North  Level Estimated
Wed 04:33:00 AM 29.7194 106.6410 North  Level Estimated
Wed 04:34:00 AM 29.7194 106.6410 North  Level Estimated
Wed 04:35:00 AM 29.7194 106.6410 North  Level Estimated
Wed 04:36:00 AM 29.7194 106.6410 North  Level Estimated
Wed 04:37:00 AM 29.7194 106.6410 North  Level Estimated
Wed 04:38:00 AM 29.7194 106.6410 North  Level Estimated
Wed 04:39:00 AM 29.7194 106.6410 North  Level Estimated
Wed 04:40:00 AM 29.7194 106.6410 North  Level Estimated
Wed 04:41:00 AM 29.7194 106.6410 North  Level Estimated
Wed 04:42:00 AM 29.7194 106.6410 North  Level Estimated

Login

Don't have an account? Register now (free) for customized features, flight alerts, and more!